createdAt,value
2022-08-29T00:01:13.375Z,97187.47
2022-08-29T00:03:42.077Z,97183.19
2022-08-29T00:06:12.620Z,97181.13
2022-08-29T00:08:40.698Z,97185.69
2022-08-29T00:11:08.906Z,97181.63
2022-08-29T00:14:01.395Z,97187.31
2022-08-29T00:16:29.542Z,97186.41
2022-08-29T00:18:58.192Z,97178.94
2022-08-29T00:21:27.569Z,97186.97
2022-08-29T00:23:55.555Z,97186.00
2022-08-29T00:26:23.575Z,97189.63
2022-08-29T00:28:54.622Z,97185.53
2022-08-29T00:31:22.689Z,97180.91
2022-08-29T00:33:51.283Z,97181.69
2022-08-29T00:36:19.295Z,97186.00
2022-08-29T00:38:52.020Z,97181.44
2022-08-29T00:41:20.660Z,97192.31
2022-08-29T00:43:48.689Z,97183.50
2022-08-29T00:46:47.614Z,97189.28
2022-08-29T00:49:26.657Z,97194.16
2022-08-29T00:51:54.863Z,97201.19
2022-08-29T00:54:24.589Z,97196.97
2022-08-29T00:56:52.637Z,97193.47
2022-08-29T00:59:22.892Z,97193.91
2022-08-29T01:01:54.050Z,97189.16
2022-08-29T01:04:23.736Z,97194.81
2022-08-29T01:06:52.566Z,97204.13
2022-08-29T01:09:21.369Z,97200.25
2022-08-29T01:12:08.336Z,97202.31
2022-08-29T01:14:38.581Z,97193.69
2022-08-29T01:17:07.670Z,97201.41
2022-08-29T01:19:44.498Z,97198.22
2022-08-29T01:22:25.179Z,97201.84
2022-08-29T01:24:54.714Z,97201.84
2022-08-29T01:27:25.057Z,97196.94
2022-08-29T01:29:53.019Z,97198.53
2022-08-29T01:32:21.087Z,97198.44
2022-08-29T01:34:49.151Z,97201.50
2022-08-29T01:37:18.018Z,97192.88
2022-08-29T01:39:46.747Z,97203.41
2022-08-29T01:42:19.482Z,97201.38
2022-08-29T01:44:49.671Z,97200.44
2022-08-29T01:47:18.180Z,97197.94
2022-08-29T01:49:46.826Z,97198.16
2022-08-29T01:52:15.608Z,97197.16
2022-08-29T01:54:44.920Z,97188.44
2022-08-29T01:57:14.191Z,97190.72
2022-08-29T01:59:44.616Z,97187.38
2022-08-29T02:02:17.049Z,97187.16
2022-08-29T02:04:47.193Z,97186.88
2022-08-29T02:07:17.536Z,97192.00
2022-08-29T02:09:46.760Z,97197.88
2022-08-29T02:12:15.177Z,97191.41
2022-08-29T02:14:44.915Z,97193.50
2022-08-29T02:17:12.965Z,97188.09
2022-08-29T02:19:41.679Z,97187.31
2022-08-29T02:22:10.211Z,97186.06
2022-08-29T02:24:38.649Z,97193.19
2022-08-29T02:27:06.907Z,97183.13
2022-08-29T02:29:38.429Z,97190.13
2022-08-29T02:32:33.195Z,97188.53
2022-08-29T02:35:01.999Z,97186.63
2022-08-29T02:37:32.478Z,97191.41
2022-08-29T02:40:00.623Z,97195.09
2022-08-29T02:42:28.771Z,97187.38
2022-08-29T02:44:56.826Z,97194.19
2022-08-29T02:47:25.305Z,97189.41
2022-08-29T02:49:54.982Z,97189.41
2022-08-29T02:52:23.140Z,97188.28
2022-08-29T02:54:51.225Z,97193.41
2022-08-29T02:57:19.310Z,97191.47
2022-08-29T02:59:47.322Z,97195.09
2022-08-29T03:02:15.413Z,97201.22
2022-08-29T03:04:43.468Z,97204.38
2022-08-29T03:07:12.918Z,97203.47
2022-08-29T03:09:40.994Z,97201.88
2022-08-29T03:12:09.433Z,97213.09
2022-08-29T03:14:37.593Z,97207.31
2022-08-29T03:17:05.833Z,97205.38
2022-08-29T03:19:37.166Z,97200.28
2022-08-29T03:22:05.653Z,97208.44
2022-08-29T03:24:35.535Z,97210.03
2022-08-29T03:27:03.815Z,97209.69
2022-08-29T03:29:31.919Z,97213.22
2022-08-29T03:32:00.009Z,97205.28
2022-08-29T03:34:28.902Z,97207.53
2022-08-29T03:36:57.159Z,97204.81
2022-08-29T03:39:25.174Z,97210.81
2022-08-29T03:41:54.642Z,97212.09
2022-08-29T03:44:23.308Z,97217.53
2022-08-29T03:46:51.445Z,97223.16
2022-08-29T03:49:19.518Z,97219.91
2022-08-29T03:51:50.045Z,97220.03
2022-08-29T03:54:18.239Z,97216.97
2022-08-29T03:56:46.673Z,97221.16
2022-08-29T03:59:16.828Z,97224.66
2022-08-29T04:01:47.320Z,97226.59
2022-08-29T04:04:36.410Z,97223.53
2022-08-29T04:07:06.406Z,97216.50
2022-08-29T04:09:34.786Z,97223.31
2022-08-29T04:12:02.847Z,97223.53
2022-08-29T04:14:32.475Z,97222.53
2022-08-29T04:17:00.575Z,97225.72
2022-08-29T04:19:28.631Z,97225.72
2022-08-29T04:22:21.874Z,97226.84
2022-08-29T04:24:50.109Z,97223.31
2022-08-29T04:27:18.269Z,97233.41
2022-08-29T04:29:48.417Z,97231.38
2022-08-29T04:32:16.554Z,97230.56
2022-08-29T04:34:44.765Z,97234.41
2022-08-29T04:37:12.891Z,97234.41
2022-08-29T04:39:40.873Z,97242.66
2022-08-29T04:42:09.002Z,97245.06
2022-08-29T04:44:37.054Z,97239.31
2022-08-29T04:47:07.020Z,97234.47
2022-08-29T04:49:35.053Z,97245.34
2022-08-29T04:52:03.670Z,97245.03
2022-08-29T04:54:31.782Z,97241.63
2022-08-29T04:57:03.308Z,97241.63
2022-08-29T04:59:33.223Z,97250.25
2022-08-29T05:02:01.627Z,97240.97
2022-08-29T05:04:31.049Z,97251.03
2022-08-29T05:06:59.077Z,97253.88
2022-08-29T05:09:27.156Z,97263.16
2022-08-29T05:11:55.216Z,97258.19
2022-08-29T05:14:23.341Z,97259.78
2022-08-29T05:16:51.420Z,97259.09
2022-08-29T05:19:19.628Z,97262.28
2022-08-29T05:21:49.468Z,97261.16
2022-08-29T05:24:17.556Z,97262.28
2022-08-29T05:26:46.580Z,97266.81
2022-08-29T05:29:14.588Z,97263.88
2022-08-29T05:31:45.696Z,97260.81
2022-08-29T05:34:32.047Z,97256.84
2022-08-29T05:37:02.241Z,97261.16
2022-08-29T05:39:30.423Z,97261.47
2022-08-29T05:41:59.588Z,97265.47
2022-08-29T05:44:32.913Z,97270.22
2022-08-29T05:47:03.676Z,97265.91
2022-08-29T05:49:31.763Z,97271.66
2022-08-29T05:52:00.666Z,97272.47
2022-08-29T05:54:30.351Z,97274.75
2022-08-29T05:56:58.987Z,97284.28
2022-08-29T05:59:27.093Z,97277.03
2022-08-29T06:01:55.140Z,97277.94
2022-08-29T06:04:23.210Z,97281.34
2022-08-29T06:06:51.727Z,97277.25
2022-08-29T06:09:19.839Z,97282.25
2022-08-29T06:11:50.423Z,97273.44
2022-08-29T06:14:18.806Z,97275.47
2022-08-29T06:16:46.943Z,97270.03
2022-08-29T06:19:15.045Z,97274.34
2022-08-29T06:21:43.296Z,97279.31
2022-08-29T06:24:11.426Z,97282.41
2022-08-29T06:26:39.493Z,97280.00
2022-08-29T06:29:10.251Z,97283.06
2022-08-29T06:31:38.883Z,97294.72
2022-08-29T06:34:08.065Z,97294.72
2022-08-29T06:36:37.156Z,97294.94
2022-08-29T06:39:08.099Z,97297.78
2022-08-29T06:41:37.211Z,97290.56
2022-08-29T06:44:09.696Z,97304.47
2022-08-29T06:46:40.520Z,97311.63
2022-08-29T06:49:12.147Z,97305.16
2022-08-29T06:51:42.106Z,97301.31
2022-08-29T06:54:12.821Z,97306.22
2022-08-29T06:56:42.459Z,97303.59
2022-08-29T06:59:11.964Z,97312.69
2022-08-29T07:01:41.200Z,97308.97
2022-08-29T07:04:14.337Z,97316.78
2022-08-29T07:06:43.138Z,97316.00
2022-08-29T07:09:11.424Z,97316.53
2022-08-29T07:11:41.451Z,97318.81
2022-08-29T07:14:11.563Z,97323.72
2022-08-29T07:16:39.942Z,97328.03
2022-08-29T07:19:08.714Z,97332.91
2022-08-29T07:21:37.110Z,97325.19
2022-08-29T07:24:05.746Z,97326.13
2022-08-29T07:26:36.313Z,97324.53
2022-08-29T07:29:08.208Z,97322.84
2022-08-29T07:31:39.051Z,97329.06
2022-08-29T07:34:07.735Z,97330.44
2022-08-29T07:36:36.711Z,97335.69
2022-08-29T07:39:07.561Z,97336.25
2022-08-29T07:42:00.371Z,97340.22
2022-08-29T07:44:30.280Z,97339.22
2022-08-29T07:47:04.435Z,97333.22
2022-08-29T07:49:40.935Z,97333.78
2022-08-29T07:52:09.296Z,97338.66
2022-08-29T07:54:37.458Z,97332.97
2022-08-29T07:57:05.798Z,97340.91
2022-08-29T07:59:33.807Z,97348.06
2022-08-29T08:02:03.759Z,97339.78
2022-08-29T08:04:31.939Z,97341.81
2022-08-29T08:06:59.964Z,97346.59
2022-08-29T08:09:27.948Z,97350.69
2022-08-29T08:11:55.966Z,97345.56
2022-08-29T08:14:24.040Z,97345.66
2022-08-29T08:17:04.680Z,97352.69
2022-08-29T08:19:33.255Z,97356.22
2022-08-29T08:22:01.260Z,97354.06
2022-08-29T08:24:29.286Z,97359.50
2022-08-29T08:26:58.011Z,97366.66
2022-08-29T08:29:26.371Z,97366.78
2022-08-29T08:31:55.889Z,97368.47
2022-08-29T08:34:25.492Z,97377.91
2022-08-29T08:36:54.116Z,97383.22
2022-08-29T08:39:22.186Z,97383.78
2022-08-29T08:41:54.785Z,97391.16
2022-08-29T08:45:07.114Z,97388.56
2022-08-29T08:47:38.023Z,97378.22
2022-08-29T08:50:13.110Z,97374.91
2022-08-29T08:52:44.503Z,97367.63
2022-08-29T08:55:19.182Z,97369.22
2022-08-29T08:57:53.816Z,97378.19
2022-08-29T09:00:22.086Z,97368.97
2022-08-29T09:03:19.048Z,97374.63
2022-08-29T09:06:02.114Z,97369.19
2022-08-29T09:08:36.328Z,97375.53
2022-08-29T09:11:11.361Z,97369.72
2022-08-29T09:13:47.968Z,97373.81
2022-08-29T09:16:24.785Z,97376.75
2022-08-29T09:18:54.251Z,97379.28
2022-08-29T09:21:40.421Z,97378.63
2022-08-29T09:24:13.776Z,97380.84
2022-08-29T09:26:41.883Z,97371.84
2022-08-29T09:29:10.104Z,97371.94
2022-08-29T09:31:38.182Z,97373.75
2022-08-29T09:34:11.981Z,97378.53
2022-08-29T09:36:47.503Z,97371.69
2022-08-29T09:39:22.106Z,97380.81
2022-08-29T09:41:52.945Z,97378.69
2022-08-29T09:44:24.141Z,97375.72
2022-08-29T09:47:11.426Z,97372.28
2022-08-29T09:49:40.799Z,97371.34
2022-08-29T09:52:13.579Z,97365.88
2022-08-29T09:54:42.564Z,97366.03
2022-08-29T09:57:14.782Z,97372.81
2022-08-29T09:59:45.142Z,97368.00
2022-08-29T10:02:25.324Z,97368.69
2022-08-29T10:04:55.348Z,97366.59
2022-08-29T10:07:26.608Z,97374.34
2022-08-29T10:10:01.391Z,97374.59
2022-08-29T10:12:35.328Z,97372.03
2022-08-29T10:15:08.356Z,97375.50
2022-08-29T10:17:58.031Z,97374.34
2022-08-29T10:20:30.291Z,97371.97
2022-08-29T10:23:03.502Z,97370.63
2022-08-29T10:25:38.265Z,97365.88
2022-08-29T10:28:11.206Z,97375.66
2022-08-29T10:30:46.474Z,97368.53
2022-08-29T10:33:22.565Z,97365.78
2022-08-29T10:35:54.960Z,97369.31
2022-08-29T10:38:36.300Z,97364.16
2022-08-29T10:41:07.930Z,97362.03
2022-08-29T10:43:40.257Z,97359.72
2022-08-29T10:46:17.811Z,97368.94
2022-08-29T10:48:52.655Z,97367.81
2022-08-29T10:51:24.274Z,97358.97
2022-08-29T10:53:57.642Z,97359.06
2022-08-29T10:56:29.658Z,97356.84
2022-08-29T10:59:04.780Z,97354.22
2022-08-29T11:01:36.503Z,97357.03
2022-08-29T11:04:11.079Z,97354.59
2022-08-29T11:06:42.472Z,97359.03
2022-08-29T11:09:18.629Z,97366.56
2022-08-29T11:11:50.007Z,97359.28
2022-08-29T11:14:24.540Z,97358.78
2022-08-29T11:16:53.604Z,97349.88
2022-08-29T11:19:24.870Z,97348.00
2022-08-29T11:21:56.697Z,97342.66
2022-08-29T11:24:31.698Z,97342.81
2022-08-29T11:27:08.399Z,97341.56
2022-08-29T11:29:40.477Z,97337.47
2022-08-29T11:32:15.038Z,97336.44
2022-08-29T11:34:57.455Z,97338.03
2022-08-29T11:37:52.951Z,97340.88
2022-08-29T11:43:30.297Z,97333.97
2022-08-29T11:46:01.636Z,97327.78
2022-08-29T11:48:36.132Z,97328.03
2022-08-29T11:51:35.962Z,97325.44
2022-08-29T11:54:39.237Z,97320.44
2022-08-29T11:57:40.053Z,97322.66
2022-08-29T12:00:33.354Z,97313.47
2022-08-29T12:03:04.382Z,97322.22
2022-08-29T12:05:56.078Z,97320.19
2022-08-29T12:08:37.177Z,97317.44
2022-08-29T12:11:06.661Z,97317.66
2022-08-29T12:14:06.225Z,97324.41
2022-08-29T12:16:50.138Z,97313.88
2022-08-29T12:19:47.660Z,97315.50
2022-08-29T12:23:01.481Z,97310.84
2022-08-29T12:26:04.109Z,97321.44
2022-08-29T12:28:47.057Z,97312.09
2022-08-29T12:31:26.888Z,97312.19
2022-08-29T12:34:05.823Z,97310.81
2022-08-29T12:36:52.271Z,97297.97
2022-08-29T12:39:29.236Z,97300.47
2022-08-29T12:42:08.140Z,97295.47
2022-08-29T12:44:39.094Z,97294.31
2022-08-29T12:47:10.282Z,97288.47
2022-08-29T12:49:43.144Z,97286.50
2022-08-29T12:52:22.452Z,97295.31
2022-08-29T12:54:56.177Z,97288.34
2022-08-29T12:57:27.587Z,97289.31
2022-08-29T12:59:55.777Z,97278.13
2022-08-29T13:02:28.750Z,97279.81
2022-08-29T13:04:56.907Z,97280.28
2022-08-29T13:07:26.132Z,97281.56
2022-08-29T13:09:56.056Z,97276.22
2022-08-29T13:12:26.106Z,97269.41
2022-08-29T13:14:57.637Z,97271.13
2022-08-29T13:17:29.467Z,97273.75
2022-08-29T13:20:34.571Z,97273.94
2022-08-29T13:23:09.192Z,97266.50
2022-08-29T13:25:43.218Z,97263.34
2022-08-29T13:28:14.839Z,97263.06
2022-08-29T13:30:43.422Z,97258.19
2022-08-29T13:33:35.479Z,97247.63
2022-08-29T13:36:29.701Z,97250.53
2022-08-29T13:39:25.020Z,97253.66
2022-08-29T13:42:10.091Z,97242.28
2022-08-29T13:44:54.349Z,97243.09
2022-08-29T13:47:24.038Z,97249.72
2022-08-29T13:49:59.005Z,97244.97
2022-08-29T13:52:31.756Z,97249.66
2022-08-29T13:55:00.295Z,97243.22
2022-08-29T13:57:30.458Z,97239.75
2022-08-29T13:59:58.936Z,97242.22
2022-08-29T14:02:28.629Z,97233.53
2022-08-29T14:04:58.425Z,97233.09
2022-08-29T14:07:28.627Z,97223.72
2022-08-29T14:09:57.018Z,97224.50
2022-08-29T14:12:33.009Z,97214.75
2022-08-29T14:15:06.570Z,97213.97
2022-08-29T14:17:37.201Z,97217.69
2022-08-29T14:20:09.650Z,97206.09
2022-08-29T14:22:38.046Z,97211.28
2022-08-29T14:25:07.283Z,97209.38
2022-08-29T14:27:35.312Z,97218.47
2022-08-29T14:30:03.559Z,97207.09
2022-08-29T14:32:31.643Z,97201.66
2022-08-29T14:34:59.680Z,97197.44
2022-08-29T14:37:29.103Z,97201.03
2022-08-29T14:39:57.237Z,97195.59
2022-08-29T14:42:26.219Z,97196.41
2022-08-29T14:44:54.348Z,97189.31
2022-08-29T14:47:22.447Z,97186.19
2022-08-29T14:49:50.499Z,97188.13
2022-08-29T14:52:18.619Z,97181.44
2022-08-29T14:54:48.015Z,97183.75
2022-08-29T14:57:16.278Z,97181.38
2022-08-29T14:59:44.883Z,97182.56
2022-08-29T15:02:13.413Z,97188.47
2022-08-29T15:04:41.524Z,97178.97
2022-08-29T15:07:11.743Z,97172.63
2022-08-29T15:09:41.738Z,97180.44
2022-08-29T15:12:11.503Z,97178.81
2022-08-29T15:14:39.728Z,97185.97
2022-08-29T15:17:08.468Z,97176.50
2022-08-29T15:20:18.167Z,97174.88
2022-08-29T15:22:25.426Z,97176.41
2022-08-29T15:24:53.779Z,97168.47
2022-08-29T15:27:27.548Z,97170.03
2022-08-29T15:29:56.027Z,97170.09
2022-08-29T15:32:24.032Z,97171.56
2022-08-29T15:34:52.403Z,97165.16
2022-08-29T15:37:20.419Z,97166.66
2022-08-29T15:39:49.914Z,97165.03
2022-08-29T15:42:29.525Z,97167.38
2022-08-29T15:44:57.616Z,97157.09
2022-08-29T15:47:25.706Z,97162.56
2022-08-29T15:49:55.819Z,97149.91
2022-08-29T15:52:24.035Z,97149.19
2022-08-29T15:54:52.182Z,97156.28
2022-08-29T15:57:20.789Z,97147.53
2022-08-29T15:59:58.639Z,97151.56
2022-08-29T16:02:27.582Z,97149.19
2022-08-29T16:04:57.182Z,97150.38
2022-08-29T16:07:29.251Z,97146.94
2022-08-29T16:10:00.124Z,97149.38
2022-08-29T16:12:30.949Z,97144.28
2022-08-29T16:15:01.936Z,97148.66
2022-08-29T16:17:32.104Z,97147.53
2022-08-29T16:20:01.188Z,97145.59
2022-08-29T16:22:29.536Z,97142.47
2022-08-29T16:24:57.952Z,97146.06
2022-08-29T16:27:25.968Z,97141.78
2022-08-29T16:29:55.469Z,97142.63
2022-08-29T16:32:24.854Z,97141.84
2022-08-29T16:34:52.892Z,97136.34
2022-08-29T16:37:21.176Z,97134.06
2022-08-29T16:39:49.273Z,97141.94
2022-08-29T16:42:17.389Z,97149.47
2022-08-29T16:44:45.564Z,97146.34
2022-08-29T16:47:13.667Z,97148.78
2022-08-29T16:49:43.104Z,97144.44
2022-08-29T16:52:11.189Z,97150.75
2022-08-29T16:54:39.782Z,97150.34
2022-08-29T16:57:07.912Z,97144.84
2022-08-29T16:59:37.227Z,97141.69
2022-08-29T17:02:05.848Z,97149.19
2022-08-29T17:04:33.929Z,97144.88
2022-08-29T17:07:03.358Z,97146.00
2022-08-29T17:09:30.511Z,97140.50
2022-08-29T17:11:57.740Z,97142.84
2022-08-29T17:14:29.269Z,97144.41
2022-08-29T17:16:57.386Z,97148.34
2022-08-29T17:19:25.492Z,97149.53
2022-08-29T17:21:53.639Z,97151.47
2022-08-29T17:24:23.043Z,97142.81
2022-08-29T17:26:51.102Z,97148.31
2022-08-29T17:29:19.228Z,97141.22
2022-08-29T17:31:47.396Z,97148.69
2022-08-29T17:34:16.268Z,97146.28
2022-08-29T17:36:44.715Z,97137.22
2022-08-29T17:39:13.461Z,97137.59
2022-08-29T17:41:43.363Z,97136.41
2022-08-29T17:44:13.098Z,97144.63
2022-08-29T17:46:41.430Z,97132.41
2022-08-29T17:49:10.474Z,97144.97
2022-08-29T17:51:39.603Z,97137.84
2022-08-29T17:54:12.355Z,97141.34
2022-08-29T17:56:46.105Z,97141.72
2022-08-29T17:59:14.419Z,97147.16
2022-08-29T18:01:42.540Z,97146.31
2022-08-29T18:04:11.278Z,97156.47
2022-08-29T18:06:39.736Z,97150.94
2022-08-29T18:09:08.874Z,97146.56
2022-08-29T18:11:38.644Z,97152.44
2022-08-29T18:14:08.492Z,97153.91
2022-08-29T18:16:36.829Z,97159.31
2022-08-29T18:19:05.848Z,97161.97
2022-08-29T18:21:34.496Z,97161.88
2022-08-29T18:24:02.636Z,97170.03
2022-08-29T18:26:30.790Z,97167.59
2022-08-29T18:28:59.106Z,97176.19
2022-08-29T18:31:28.475Z,97179.25
2022-08-29T18:34:00.584Z,97194.06
2022-08-29T18:36:29.671Z,97183.00
2022-08-29T18:38:57.970Z,97189.59
2022-08-29T18:41:26.825Z,97191.09
2022-08-29T18:43:54.858Z,97189.75
2022-08-29T18:46:23.315Z,97190.44
2022-08-29T18:48:53.200Z,97198.22
2022-08-29T18:51:21.350Z,97194.63
2022-08-29T18:53:49.508Z,97202.75
2022-08-29T18:56:17.734Z,97205.38
2022-08-29T18:58:45.789Z,97217.41
2022-08-29T19:01:17.152Z,97210.25
2022-08-29T19:03:58.889Z,97219.16
2022-08-29T19:06:27.603Z,97217.09
2022-08-29T19:08:56.642Z,97216.59
2022-08-29T19:11:25.506Z,97207.91
2022-08-29T19:13:53.994Z,97222.28
2022-08-29T19:16:22.943Z,97220.66
2022-08-29T19:18:51.341Z,97219.78
2022-08-29T19:21:20.227Z,97210.31
2022-08-29T19:23:52.191Z,97213.34
2022-08-29T19:26:24.215Z,97219.94
2022-08-29T19:28:54.228Z,97223.34
2022-08-29T19:31:24.957Z,97219.31
2022-08-29T19:33:53.560Z,97218.47
2022-08-29T19:36:24.018Z,97222.31
2022-08-29T19:38:52.106Z,97218.34
2022-08-29T19:41:20.319Z,97218.22
2022-08-29T19:43:48.843Z,97229.81
2022-08-29T19:46:19.960Z,97232.03
2022-08-29T19:48:51.341Z,97225.72
2022-08-29T19:51:25.759Z,97232.22
2022-08-29T19:53:57.633Z,97237.97
2022-08-29T19:56:26.917Z,97247.63
2022-08-29T19:58:55.142Z,97247.78
2022-08-29T20:01:23.903Z,97254.69
2022-08-29T20:03:52.735Z,97249.06
2022-08-29T20:06:23.310Z,97245.03
2022-08-29T20:08:51.547Z,97253.09
2022-08-29T20:11:21.951Z,97244.75
2022-08-29T20:13:51.144Z,97250.56
2022-08-29T20:16:21.587Z,97250.13
2022-08-29T20:18:50.462Z,97245.25
2022-08-29T20:21:19.169Z,97252.59
2022-08-29T20:23:51.468Z,97250.59
2022-08-29T20:26:23.955Z,97247.34
2022-08-29T20:28:54.167Z,97253.50
2022-08-29T20:31:23.318Z,97242.50
2022-08-29T20:33:51.790Z,97251.41
2022-08-29T20:36:38.992Z,97253.63
2022-08-29T20:39:10.251Z,97254.69
2022-08-29T20:41:38.598Z,97249.06
2022-08-29T20:44:09.909Z,97250.31
2022-08-29T20:46:40.660Z,97253.59
2022-08-29T20:49:09.128Z,97246.13
2022-08-29T20:51:37.589Z,97243.63
2022-08-29T20:54:06.422Z,97245.47
2022-08-29T20:56:35.843Z,97251.63
2022-08-29T20:59:04.030Z,97250.19
2022-08-29T21:01:32.185Z,97250.91
2022-08-29T21:04:20.950Z,97258.13
2022-08-29T21:06:49.472Z,97250.63
2022-08-29T21:09:17.520Z,97257.25
2022-08-29T21:11:46.927Z,97254.31
2022-08-29T21:14:15.102Z,97256.25
2022-08-29T21:16:43.126Z,97251.16
2022-08-29T21:19:11.363Z,97253.25
2022-08-29T21:21:41.087Z,97260.09
2022-08-29T21:24:11.459Z,97256.47
2022-08-29T21:26:40.037Z,97249.88
2022-08-29T21:29:09.509Z,97255.94
2022-08-29T21:31:37.799Z,97258.22
2022-08-29T21:34:07.252Z,97258.22
2022-08-29T21:36:36.772Z,97256.63
2022-08-29T21:39:06.304Z,97262.44
2022-08-29T21:41:35.368Z,97261.97
2022-08-29T21:44:03.957Z,97260.75
2022-08-29T21:46:35.255Z,97261.88
2022-08-29T21:49:06.237Z,97255.66
2022-08-29T21:51:35.043Z,97261.00
2022-08-29T21:54:03.738Z,97260.88
2022-08-29T21:56:33.750Z,97263.88
2022-08-29T21:59:02.602Z,97263.28
2022-08-29T22:01:38.724Z,97266.59
2022-08-29T22:04:10.271Z,97271.16
2022-08-29T22:06:39.698Z,97265.97
2022-08-29T22:09:09.875Z,97266.53
2022-08-29T22:11:38.410Z,97272.34
2022-08-29T22:14:07.406Z,97261.44
2022-08-29T22:16:37.029Z,97267.13
2022-08-29T22:19:08.165Z,97265.53
2022-08-29T22:21:38.164Z,97262.81
2022-08-29T22:24:07.781Z,97267.47
2022-08-29T22:26:37.011Z,97265.06
2022-08-29T22:29:05.377Z,97270.44
2022-08-29T22:31:34.006Z,97272.59
2022-08-29T22:34:05.288Z,97275.56
2022-08-29T22:36:34.375Z,97276.47
2022-08-29T22:39:02.474Z,97277.50
2022-08-29T22:41:31.223Z,97273.53
2022-08-29T22:46:49.771Z,97276.16
2022-08-29T22:49:19.213Z,97273.75
2022-08-29T22:51:48.242Z,97269.44
2022-08-29T22:54:33.940Z,97266.28
2022-08-29T22:57:02.653Z,97271.50
2022-08-29T22:59:30.731Z,97272.97
2022-08-29T23:01:59.013Z,97267.41
2022-08-29T23:04:28.553Z,97265.03
2022-08-29T23:06:56.618Z,97260.34
2022-08-29T23:09:24.658Z,97268.84
2022-08-29T23:11:52.700Z,97272.38
2022-08-29T23:14:21.557Z,97270.09
2022-08-29T23:16:50.077Z,97269.31
2022-08-29T23:19:18.311Z,97265.22
2022-08-29T23:21:47.708Z,97261.94
2022-08-29T23:24:16.628Z,97263.28
2022-08-29T23:26:44.692Z,97262.50
2022-08-29T23:29:12.760Z,97261.03
2022-08-29T23:31:40.763Z,97265.53
2022-08-29T23:34:08.877Z,97268.16
2022-08-29T23:36:37.678Z,97265.34
2022-08-29T23:39:07.555Z,97261.25
2022-08-29T23:41:36.361Z,97271.09
2022-08-29T23:44:05.130Z,97252.38
2022-08-29T23:46:33.299Z,97254.97
2022-08-29T23:49:01.377Z,97248.28
2022-08-29T23:51:29.675Z,97249.41
2022-08-29T23:53:58.262Z,97243.16
2022-08-29T23:56:27.751Z,97244.19
2022-08-29T23:58:56.354Z,97241.00
